Aviation Digital Data Service (ADDS)

Output produced by METARs form (2148 UTC 01 December 2021)
found at http://aviationweather.gov/metar/data/
 
KHUM 012050Z 17010KT 7SM SCT040 22/15 A3012
KHUM 011740Z 0118/0218 16007KT P6SM SCT250 
     FM020800 00000KT 5SM BR FEW250 
     FM021200 00000KT 1/2SM FG SCT010 
     FM021400 00000KT 2SM BR FEW250 
     FM021500 00000KT P6SM FEW050